Terminal Aerodrome Forecast
Issued by NWS Portland, OR

Home | Current Version | Previous Version | Text Only | Print | Product List | Glossary On
Versions: 1 2 3 4 5 6 7 8 9 10 11 12 13 14 15 16
000
FTUS46 KPQR 231122
TAFSLE
TAF
KSLE 231122Z 2312/2412 VRB03KT P6SM SKC
     FM231800 35008KT P6SM SKC
     FM232200 32015G23KT P6SM SKC
     FM240300 32017G25KT P6SM BKN100
     FM240500 33012KT P6SM OVC025=

USA.gov is the U.S. government's official web portal to all federal, state and local government web resources and services.